sensor_id;sensor_type;location;lat;lon;timestamp;P1;durP1;ratioP1;P2;durP2;ratioP2
28483;SDS011;15704;48.834;8.736;2024-03-29T00:00:42;2.30;;;1.10;;
28483;SDS011;15704;48.834;8.736;2024-03-29T00:03:09;1.05;;;0.75;;
28483;SDS011;15704;48.834;8.736;2024-03-29T00:05:36;0.60;;;0.60;;
28483;SDS011;15704;48.834;8.736;2024-03-29T00:08:03;0.70;;;0.68;;
28483;SDS011;15704;48.834;8.736;2024-03-29T00:10:29;1.33;;;1.00;;
28483;SDS011;15704;48.834;8.736;2024-03-29T00:12:55;1.90;;;0.80;;
28483;SDS011;15704;48.834;8.736;2024-03-29T00:15:24;0.93;;;0.63;;
28483;SDS011;15704;48.834;8.736;2024-03-29T00:17:50;1.58;;;0.80;;
28483;SDS011;15704;48.834;8.736;2024-03-29T00:20:16;1.60;;;1.00;;
28483;SDS011;15704;48.834;8.736;2024-03-29T00:22:42;0.98;;;0.65;;
28483;SDS011;15704;48.834;8.736;2024-03-29T00:25:13;1.10;;;0.80;;
28483;SDS011;15704;48.834;8.736;2024-03-29T00:27:39;0.63;;;0.60;;
28483;SDS011;15704;48.834;8.736;2024-03-29T00:30:05;0.80;;;0.70;;
28483;SDS011;15704;48.834;8.736;2024-03-29T00:32:31;0.80;;;0.70;;
28483;SDS011;15704;48.834;8.736;2024-03-29T00:34:57;1.10;;;0.80;;
28483;SDS011;15704;48.834;8.736;2024-03-29T00:37:23;1.25;;;0.77;;
28483;SDS011;15704;48.834;8.736;2024-03-29T00:39:49;0.65;;;0.55;;
28483;SDS011;15704;48.834;8.736;2024-03-29T00:42:15;0.75;;;0.75;;
28483;SDS011;15704;48.834;8.736;2024-03-29T00:44:42;1.00;;;0.70;;
28483;SDS011;15704;48.834;8.736;2024-03-29T00:47:08;1.52;;;0.93;;
28483;SDS011;15704;48.834;8.736;2024-03-29T00:49:35;1.13;;;0.80;;
28483;SDS011;15704;48.834;8.736;2024-03-29T00:52:01;1.27;;;0.80;;
28483;SDS011;15704;48.834;8.736;2024-03-29T00:54:28;1.23;;;0.80;;
28483;SDS011;15704;48.834;8.736;2024-03-29T00:56:54;1.30;;;0.90;;
28483;SDS011;15704;48.834;8.736;2024-03-29T00:59:20;1.05;;;0.80;;
28483;SDS011;15704;48.834;8.736;2024-03-29T01:01:46;1.13;;;0.52;;
28483;SDS011;15704;48.834;8.736;2024-03-29T01:04:12;0.95;;;0.70;;
28483;SDS011;15704;48.834;8.736;2024-03-29T01:06:38;1.23;;;0.77;;
28483;SDS011;15704;48.834;8.736;2024-03-29T01:09:05;0.80;;;0.80;;
28483;SDS011;15704;48.834;8.736;2024-03-29T01:11:31;0.93;;;0.70;;
28483;SDS011;15704;48.834;8.736;2024-03-29T01:13:58;0.68;;;0.50;;
28483;SDS011;15704;48.834;8.736;2024-03-29T01:16:24;1.38;;;0.80;;
28483;SDS011;15704;48.834;8.736;2024-03-29T01:18:49;1.27;;;0.93;;
28483;SDS011;15704;48.834;8.736;2024-03-29T01:21:17;1.73;;;0.80;;
28483;SDS011;15704;48.834;8.736;2024-03-29T01:23:43;0.60;;;0.60;;
28483;SDS011;15704;48.834;8.736;2024-03-29T01:26:10;0.95;;;0.70;;
28483;SDS011;15704;48.834;8.736;2024-03-29T01:28:37;0.95;;;0.80;;
28483;SDS011;15704;48.834;8.736;2024-03-29T01:31:04;1.15;;;0.80;;
28483;SDS011;15704;48.834;8.736;2024-03-29T01:33:31;1.70;;;0.90;;
28483;SDS011;15704;48.834;8.736;2024-03-29T01:36:05;1.98;;;0.90;;
28483;SDS011;15704;48.834;8.736;2024-03-29T01:38:34;0.70;;;0.70;;
28483;SDS011;15704;48.834;8.736;2024-03-29T01:41:00;1.60;;;0.90;;
28483;SDS011;15704;48.834;8.736;2024-03-29T01:43:26;1.02;;;0.80;;
28483;SDS011;15704;48.834;8.736;2024-03-29T01:45:55;0.85;;;0.73;;
28483;SDS011;15704;48.834;8.736;2024-03-29T01:48:22;1.33;;;0.80;;
28483;SDS011;15704;48.834;8.736;2024-03-29T01:50:53;1.05;;;0.65;;
28483;SDS011;15704;48.834;8.736;2024-03-29T01:53:20;1.88;;;0.80;;
28483;SDS011;15704;48.834;8.736;2024-03-29T01:55:47;0.80;;;0.63;;
28483;SDS011;15704;48.834;8.736;2024-03-29T01:58:13;1.27;;;0.90;;
28483;SDS011;15704;48.834;8.736;2024-03-29T02:00:41;0.80;;;0.80;;
28483;SDS011;15704;48.834;8.736;2024-03-29T02:03:14;1.13;;;0.73;;
28483;SDS011;15704;48.834;8.736;2024-03-29T02:05:41;1.52;;;0.90;;
28483;SDS011;15704;48.834;8.736;2024-03-29T02:08:08;0.98;;;0.70;;
28483;SDS011;15704;48.834;8.736;2024-03-29T02:10:35;1.00;;;0.70;;
28483;SDS011;15704;48.834;8.736;2024-03-29T02:13:02;1.05;;;0.80;;
28483;SDS011;15704;48.834;8.736;2024-03-29T02:15:29;1.13;;;0.80;;
28483;SDS011;15704;48.834;8.736;2024-03-29T02:17:55;0.85;;;0.80;;
28483;SDS011;15704;48.834;8.736;2024-03-29T02:20:22;0.55;;;0.40;;
28483;SDS011;15704;48.834;8.736;2024-03-29T02:22:55;0.70;;;0.70;;
28483;SDS011;15704;48.834;8.736;2024-03-29T02:25:32;1.05;;;0.80;;
28483;SDS011;15704;48.834;8.736;2024-03-29T02:27:57;0.90;;;0.60;;
28483;SDS011;15704;48.834;8.736;2024-03-29T02:30:26;1.60;;;1.05;;
28483;SDS011;15704;48.834;8.736;2024-03-29T02:32:52;1.35;;;0.80;;
28483;SDS011;15704;48.834;8.736;2024-03-29T02:35:18;0.60;;;0.60;;
28483;SDS011;15704;48.834;8.736;2024-03-29T02:37:44;1.15;;;0.77;;
28483;SDS011;15704;48.834;8.736;2024-03-29T02:40:10;1.25;;;0.90;;
28483;SDS011;15704;48.834;8.736;2024-03-29T02:42:36;1.50;;;0.80;;
28483;SDS011;15704;48.834;8.736;2024-03-29T02:45:03;1.00;;;0.60;;
28483;SDS011;15704;48.834;8.736;2024-03-29T02:47:29;1.85;;;1.10;;
28483;SDS011;15704;48.834;8.736;2024-03-29T02:49:55;0.98;;;0.70;;
28483;SDS011;15704;48.834;8.736;2024-03-29T02:52:21;0.90;;;0.70;;
28483;SDS011;15704;48.834;8.736;2024-03-29T02:54:47;1.65;;;0.80;;
28483;SDS011;15704;48.834;8.736;2024-03-29T02:57:13;1.25;;;0.98;;
28483;SDS011;15704;48.834;8.736;2024-03-29T02:59:42;0.80;;;0.70;;
28483;SDS011;15704;48.834;8.736;2024-03-29T03:02:08;0.82;;;0.73;;
28483;SDS011;15704;48.834;8.736;2024-03-29T03:04:34;0.90;;;0.75;;
28483;SDS011;15704;48.834;8.736;2024-03-29T03:07:00;1.33;;;0.70;;
28483;SDS011;15704;48.834;8.736;2024-03-29T03:09:44;0.57;;;0.50;;
28483;SDS011;15704;48.834;8.736;2024-03-29T03:12:29;0.80;;;0.70;;
28483;SDS011;15704;48.834;8.736;2024-03-29T03:14:56;0.82;;;0.70;;
28483;SDS011;15704;48.834;8.736;2024-03-29T03:17:22;1.35;;;0.90;;
28483;SDS011;15704;48.834;8.736;2024-03-29T03:19:50;1.30;;;0.70;;
28483;SDS011;15704;48.834;8.736;2024-03-29T03:22:17;1.08;;;0.77;;
28483;SDS011;15704;48.834;8.736;2024-03-29T03:24:43;1.23;;;0.73;;
28483;SDS011;15704;48.834;8.736;2024-03-29T03:27:09;0.77;;;0.75;;
28483;SDS011;15704;48.834;8.736;2024-03-29T03:29:35;0.82;;;0.60;;
28483;SDS011;15704;48.834;8.736;2024-03-29T03:32:01;1.15;;;0.73;;
28483;SDS011;15704;48.834;8.736;2024-03-29T03:34:27;0.50;;;0.50;;
28483;SDS011;15704;48.834;8.736;2024-03-29T03:36:56;0.60;;;0.60;;
28483;SDS011;15704;48.834;8.736;2024-03-29T03:39:24;0.60;;;0.60;;
28483;SDS011;15704;48.834;8.736;2024-03-29T03:41:50;1.00;;;0.60;;
28483;SDS011;15704;48.834;8.736;2024-03-29T03:44:16;1.02;;;0.70;;
28483;SDS011;15704;48.834;8.736;2024-03-29T03:46:42;0.90;;;0.60;;
28483;SDS011;15704;48.834;8.736;2024-03-29T03:49:08;1.73;;;1.02;;
28483;SDS011;15704;48.834;8.736;2024-03-29T03:51:34;1.52;;;0.75;;
28483;SDS011;15704;48.834;8.736;2024-03-29T03:53:59;0.73;;;0.70;;
28483;SDS011;15704;48.834;8.736;2024-03-29T03:56:25;0.75;;;0.60;;
28483;SDS011;15704;48.834;8.736;2024-03-29T03:58:51;0.73;;;0.73;;
28483;SDS011;15704;48.834;8.736;2024-03-29T04:01:17;1.10;;;0.60;;
28483;SDS011;15704;48.834;8.736;2024-03-29T04:03:43;0.65;;;0.60;;
28483;SDS011;15704;48.834;8.736;2024-03-29T04:06:09;0.75;;;0.50;;
28483;SDS011;15704;48.834;8.736;2024-03-29T04:08:34;1.15;;;0.63;;
28483;SDS011;15704;48.834;8.736;2024-03-29T04:11:04;1.38;;;0.82;;
28483;SDS011;15704;48.834;8.736;2024-03-29T04:13:30;1.02;;;0.52;;
28483;SDS011;15704;48.834;8.736;2024-03-29T04:16:02;0.68;;;0.60;;
28483;SDS011;15704;48.834;8.736;2024-03-29T04:18:29;1.35;;;0.75;;
28483;SDS011;15704;48.834;8.736;2024-03-29T04:20:58;1.00;;;0.70;;
28483;SDS011;15704;48.834;8.736;2024-03-29T04:23:25;1.33;;;0.77;;
28483;SDS011;15704;48.834;8.736;2024-03-29T04:25:52;0.85;;;0.65;;
28483;SDS011;15704;48.834;8.736;2024-03-29T04:28:18;0.77;;;0.63;;
28483;SDS011;15704;48.834;8.736;2024-03-29T04:30:50;0.60;;;0.50;;
28483;SDS011;15704;48.834;8.736;2024-03-29T04:33:17;0.93;;;0.80;;
28483;SDS011;15704;48.834;8.736;2024-03-29T04:35:59;1.55;;;0.80;;
28483;SDS011;15704;48.834;8.736;2024-03-29T04:38:25;0.65;;;0.57;;
28483;SDS011;15704;48.834;8.736;2024-03-29T04:40:52;1.10;;;0.65;;
28483;SDS011;15704;48.834;8.736;2024-03-29T04:43:23;0.80;;;0.60;;
28483;SDS011;15704;48.834;8.736;2024-03-29T04:46:03;0.75;;;0.65;;
28483;SDS011;15704;48.834;8.736;2024-03-29T04:48:34;1.10;;;0.70;;
28483;SDS011;15704;48.834;8.736;2024-03-29T04:50:59;1.25;;;0.60;;
28483;SDS011;15704;48.834;8.736;2024-03-29T04:53:25;0.85;;;0.70;;
28483;SDS011;15704;48.834;8.736;2024-03-29T04:55:54;0.85;;;0.65;;
28483;SDS011;15704;48.834;8.736;2024-03-29T04:58:24;0.80;;;0.80;;
28483;SDS011;15704;48.834;8.736;2024-03-29T05:00:51;1.15;;;0.73;;
28483;SDS011;15704;48.834;8.736;2024-03-29T05:03:18;0.95;;;0.82;;
28483;SDS011;15704;48.834;8.736;2024-03-29T05:05:44;0.60;;;0.60;;
28483;SDS011;15704;48.834;8.736;2024-03-29T05:08:11;0.50;;;0.50;;
28483;SDS011;15704;48.834;8.736;2024-03-29T05:10:36;0.60;;;0.60;;
28483;SDS011;15704;48.834;8.736;2024-03-29T05:13:02;0.68;;;0.68;;
28483;SDS011;15704;48.834;8.736;2024-03-29T05:15:29;0.60;;;0.60;;
28483;SDS011;15704;48.834;8.736;2024-03-29T05:17:54;0.60;;;0.60;;
28483;SDS011;15704;48.834;8.736;2024-03-29T05:20:20;1.00;;;0.63;;
28483;SDS011;15704;48.834;8.736;2024-03-29T05:22:46;0.50;;;0.50;;
28483;SDS011;15704;48.834;8.736;2024-03-29T05:25:12;1.08;;;0.70;;
28483;SDS011;15704;48.834;8.736;2024-03-29T05:27:38;0.60;;;0.60;;
28483;SDS011;15704;48.834;8.736;2024-03-29T05:30:03;0.47;;;0.47;;
28483;SDS011;15704;48.834;8.736;2024-03-29T05:32:30;0.82;;;0.60;;
28483;SDS011;15704;48.834;8.736;2024-03-29T05:34:57;0.70;;;0.50;;
28483;SDS011;15704;48.834;8.736;2024-03-29T05:37:23;0.75;;;0.60;;
28483;SDS011;15704;48.834;8.736;2024-03-29T05:39:52;0.82;;;0.70;;
28483;SDS011;15704;48.834;8.736;2024-03-29T05:42:25;0.90;;;0.60;;
28483;SDS011;15704;48.834;8.736;2024-03-29T05:44:52;0.52;;;0.50;;
28483;SDS011;15704;48.834;8.736;2024-03-29T05:47:21;0.93;;;0.60;;
28483;SDS011;15704;48.834;8.736;2024-03-29T05:49:47;0.82;;;0.60;;
28483;SDS011;15704;48.834;8.736;2024-03-29T05:52:14;0.80;;;0.70;;
28483;SDS011;15704;48.834;8.736;2024-03-29T05:54:40;0.57;;;0.52;;
28483;SDS011;15704;48.834;8.736;2024-03-29T05:57:12;1.17;;;0.60;;
28483;SDS011;15704;48.834;8.736;2024-03-29T05:59:38;0.90;;;0.70;;
28483;SDS011;15704;48.834;8.736;2024-03-29T06:02:04;0.47;;;0.40;;
28483;SDS011;15704;48.834;8.736;2024-03-29T06:04:30;0.80;;;0.63;;
28483;SDS011;15704;48.834;8.736;2024-03-29T06:06:59;0.65;;;0.55;;
28483;SDS011;15704;48.834;8.736;2024-03-29T06:09:28;0.50;;;0.50;;
28483;SDS011;15704;48.834;8.736;2024-03-29T06:11:54;0.80;;;0.68;;
28483;SDS011;15704;48.834;8.736;2024-03-29T06:14:21;1.40;;;0.60;;
28483;SDS011;15704;48.834;8.736;2024-03-29T06:17:07;0.45;;;0.40;;
28483;SDS011;15704;48.834;8.736;2024-03-29T06:19:48;1.70;;;0.80;;
28483;SDS011;15704;48.834;8.736;2024-03-29T06:22:15;0.50;;;0.50;;
28483;SDS011;15704;48.834;8.736;2024-03-29T06:24:42;1.10;;;0.80;;
28483;SDS011;15704;48.834;8.736;2024-03-29T06:27:09;0.73;;;0.60;;
28483;SDS011;15704;48.834;8.736;2024-03-29T06:29:35;0.50;;;0.50;;
28483;SDS011;15704;48.834;8.736;2024-03-29T06:32:01;0.50;;;0.50;;
28483;SDS011;15704;48.834;8.736;2024-03-29T06:34:31;0.65;;;0.50;;
28483;SDS011;15704;48.834;8.736;2024-03-29T06:36:56;0.50;;;0.50;;
28483;SDS011;15704;48.834;8.736;2024-03-29T06:39:22;0.38;;;0.38;;
28483;SDS011;15704;48.834;8.736;2024-03-29T06:41:48;0.57;;;0.50;;
28483;SDS011;15704;48.834;8.736;2024-03-29T06:44:14;0.80;;;0.65;;
28483;SDS011;15704;48.834;8.736;2024-03-29T06:46:40;0.70;;;0.63;;
28483;SDS011;15704;48.834;8.736;2024-03-29T06:49:05;0.43;;;0.43;;
28483;SDS011;15704;48.834;8.736;2024-03-29T06:51:31;0.88;;;0.63;;
28483;SDS011;15704;48.834;8.736;2024-03-29T06:53:57;1.00;;;0.65;;
28483;SDS011;15704;48.834;8.736;2024-03-29T06:56:23;0.98;;;0.60;;
28483;SDS011;15704;48.834;8.736;2024-03-29T06:58:48;0.65;;;0.60;;
28483;SDS011;15704;48.834;8.736;2024-03-29T07:01:14;0.50;;;0.50;;
28483;SDS011;15704;48.834;8.736;2024-03-29T07:03:42;0.68;;;0.50;;
28483;SDS011;15704;48.834;8.736;2024-03-29T07:06:08;0.75;;;0.50;;
28483;SDS011;15704;48.834;8.736;2024-03-29T07:08:34;0.80;;;0.70;;
28483;SDS011;15704;48.834;8.736;2024-03-29T07:11:00;0.57;;;0.57;;
28483;SDS011;15704;48.834;8.736;2024-03-29T07:13:28;0.68;;;0.50;;
28483;SDS011;15704;48.834;8.736;2024-03-29T07:15:58;0.43;;;0.43;;
28483;SDS011;15704;48.834;8.736;2024-03-29T07:18:24;0.45;;;0.45;;
28483;SDS011;15704;48.834;8.736;2024-03-29T07:20:50;1.02;;;0.60;;
28483;SDS011;15704;48.834;8.736;2024-03-29T07:23:16;0.40;;;0.40;;
28483;SDS011;15704;48.834;8.736;2024-03-29T07:25:45;0.73;;;0.60;;
28483;SDS011;15704;48.834;8.736;2024-03-29T07:28:22;0.85;;;0.60;;
28483;SDS011;15704;48.834;8.736;2024-03-29T07:30:47;0.60;;;0.50;;
28483;SDS011;15704;48.834;8.736;2024-03-29T07:33:15;0.55;;;0.50;;
28483;SDS011;15704;48.834;8.736;2024-03-29T07:35:41;0.38;;;0.38;;
28483;SDS011;15704;48.834;8.736;2024-03-29T07:38:07;0.95;;;0.57;;
28483;SDS011;15704;48.834;8.736;2024-03-29T07:40:34;0.55;;;0.38;;
28483;SDS011;15704;48.834;8.736;2024-03-29T07:43:02;0.50;;;0.40;;
28483;SDS011;15704;48.834;8.736;2024-03-29T07:45:28;0.40;;;0.40;;
28483;SDS011;15704;48.834;8.736;2024-03-29T07:47:54;1.02;;;0.65;;
28483;SDS011;15704;48.834;8.736;2024-03-29T07:50:20;0.85;;;0.55;;
28483;SDS011;15704;48.834;8.736;2024-03-29T07:52:46;0.63;;;0.50;;
28483;SDS011;15704;48.834;8.736;2024-03-29T07:55:12;0.68;;;0.50;;
28483;SDS011;15704;48.834;8.736;2024-03-29T07:57:37;0.45;;;0.45;;
28483;SDS011;15704;48.834;8.736;2024-03-29T08:00:04;0.75;;;0.50;;
28483;SDS011;15704;48.834;8.736;2024-03-29T08:02:31;0.60;;;0.60;;
28483;SDS011;15704;48.834;8.736;2024-03-29T08:05:01;0.43;;;0.40;;
28483;SDS011;15704;48.834;8.736;2024-03-29T08:07:26;0.60;;;0.60;;
28483;SDS011;15704;48.834;8.736;2024-03-29T08:09:52;0.77;;;0.55;;
28483;SDS011;15704;48.834;8.736;2024-03-29T08:12:18;0.60;;;0.60;;
28483;SDS011;15704;48.834;8.736;2024-03-29T08:14:44;0.52;;;0.45;;
28483;SDS011;15704;48.834;8.736;2024-03-29T08:17:11;0.40;;;0.30;;
28483;SDS011;15704;48.834;8.736;2024-03-29T08:19:41;0.50;;;0.50;;
28483;SDS011;15704;48.834;8.736;2024-03-29T08:22:10;0.40;;;0.40;;
28483;SDS011;15704;48.834;8.736;2024-03-29T08:24:36;0.55;;;0.50;;
28483;SDS011;15704;48.834;8.736;2024-03-29T08:27:02;0.40;;;0.40;;
28483;SDS011;15704;48.834;8.736;2024-03-29T08:29:28;0.60;;;0.60;;
28483;SDS011;15704;48.834;8.736;2024-03-29T08:31:54;0.90;;;0.50;;
28483;SDS011;15704;48.834;8.736;2024-03-29T08:34:20;0.40;;;0.40;;
28483;SDS011;15704;48.834;8.736;2024-03-29T08:36:49;0.75;;;0.60;;
28483;SDS011;15704;48.834;8.736;2024-03-29T08:39:15;0.50;;;0.50;;
28483;SDS011;15704;48.834;8.736;2024-03-29T08:41:42;0.60;;;0.50;;
28483;SDS011;15704;48.834;8.736;2024-03-29T08:44:10;0.40;;;0.40;;
28483;SDS011;15704;48.834;8.736;2024-03-29T08:46:36;0.60;;;0.60;;
28483;SDS011;15704;48.834;8.736;2024-03-29T08:49:02;0.60;;;0.50;;
28483;SDS011;15704;48.834;8.736;2024-03-29T08:51:29;0.88;;;0.60;;
28483;SDS011;15704;48.834;8.736;2024-03-29T08:53:55;0.40;;;0.40;;
28483;SDS011;15704;48.834;8.736;2024-03-29T08:56:23;0.40;;;0.40;;
28483;SDS011;15704;48.834;8.736;2024-03-29T08:58:49;0.57;;;0.50;;
28483;SDS011;15704;48.834;8.736;2024-03-29T09:01:15;0.60;;;0.60;;
28483;SDS011;15704;48.834;8.736;2024-03-29T09:03:41;0.60;;;0.50;;
28483;SDS011;15704;48.834;8.736;2024-03-29T09:06:07;0.88;;;0.60;;
28483;SDS011;15704;48.834;8.736;2024-03-29T09:08:32;0.68;;;0.50;;
28483;SDS011;15704;48.834;8.736;2024-03-29T09:10:58;0.50;;;0.50;;
28483;SDS011;15704;48.834;8.736;2024-03-29T09:13:26;0.60;;;0.50;;
28483;SDS011;15704;48.834;8.736;2024-03-29T09:15:52;0.73;;;0.50;;
28483;SDS011;15704;48.834;8.736;2024-03-29T09:18:18;0.40;;;0.40;;
28483;SDS011;15704;48.834;8.736;2024-03-29T09:20:55;0.82;;;0.60;;
28483;SDS011;15704;48.834;8.736;2024-03-29T09:23:23;0.57;;;0.50;;
28483;SDS011;15704;48.834;8.736;2024-03-29T09:25:50;0.73;;;0.60;;
28483;SDS011;15704;48.834;8.736;2024-03-29T09:28:17;0.60;;;0.60;;
28483;SDS011;15704;48.834;8.736;2024-03-29T09:30:42;0.77;;;0.55;;
28483;SDS011;15704;48.834;8.736;2024-03-29T09:33:08;0.55;;;0.45;;
28483;SDS011;15704;48.834;8.736;2024-03-29T09:35:39;0.50;;;0.50;;
28483;SDS011;15704;48.834;8.736;2024-03-29T09:38:04;0.85;;;0.70;;
28483;SDS011;15704;48.834;8.736;2024-03-29T09:40:30;0.60;;;0.60;;
28483;SDS011;15704;48.834;8.736;2024-03-29T09:42:59;0.60;;;0.60;;
28483;SDS011;15704;48.834;8.736;2024-03-29T09:45:31;0.57;;;0.50;;
28483;SDS011;15704;48.834;8.736;2024-03-29T09:48:05;0.85;;;0.60;;
28483;SDS011;15704;48.834;8.736;2024-03-29T09:50:36;2.25;;;0.70;;
28483;SDS011;15704;48.834;8.736;2024-03-29T09:53:05;0.50;;;0.50;;
28483;SDS011;15704;48.834;8.736;2024-03-29T09:55:33;1.17;;;0.55;;
28483;SDS011;15704;48.834;8.736;2024-03-29T09:58:02;0.98;;;0.70;;
28483;SDS011;15704;48.834;8.736;2024-03-29T10:00:29;0.55;;;0.45;;
28483;SDS011;15704;48.834;8.736;2024-03-29T10:02:56;1.15;;;0.60;;
28483;SDS011;15704;48.834;8.736;2024-03-29T10:05:23;0.70;;;0.50;;
28483;SDS011;15704;48.834;8.736;2024-03-29T10:07:50;1.08;;;0.70;;
28483;SDS011;15704;48.834;8.736;2024-03-29T10:10:16;0.98;;;0.60;;
28483;SDS011;15704;48.834;8.736;2024-03-29T10:12:43;0.52;;;0.50;;
28483;SDS011;15704;48.834;8.736;2024-03-29T10:15:11;0.88;;;0.70;;
28483;SDS011;15704;48.834;8.736;2024-03-29T10:17:44;0.50;;;0.50;;
28483;SDS011;15704;48.834;8.736;2024-03-29T10:20:11;0.40;;;0.40;;
28483;SDS011;15704;48.834;8.736;2024-03-29T10:22:41;0.60;;;0.55;;
28483;SDS011;15704;48.834;8.736;2024-03-29T10:25:12;0.70;;;0.57;;
28483;SDS011;15704;48.834;8.736;2024-03-29T10:27:38;0.45;;;0.45;;
28483;SDS011;15704;48.834;8.736;2024-03-29T10:30:06;0.98;;;0.60;;
28483;SDS011;15704;48.834;8.736;2024-03-29T10:32:37;0.65;;;0.47;;
28483;SDS011;15704;48.834;8.736;2024-03-29T10:35:08;0.52;;;0.50;;
28483;SDS011;15704;48.834;8.736;2024-03-29T10:37:37;0.50;;;0.50;;
28483;SDS011;15704;48.834;8.736;2024-03-29T10:40:22;0.50;;;0.50;;
28483;SDS011;15704;48.834;8.736;2024-03-29T10:42:49;0.73;;;0.40;;
28483;SDS011;15704;48.834;8.736;2024-03-29T10:45:17;0.52;;;0.52;;
28483;SDS011;15704;48.834;8.736;2024-03-29T10:47:43;2.65;;;0.75;;
28483;SDS011;15704;48.834;8.736;2024-03-29T10:50:10;0.50;;;0.50;;
28483;SDS011;15704;48.834;8.736;2024-03-29T10:52:38;0.45;;;0.40;;
28483;SDS011;15704;48.834;8.736;2024-03-29T10:55:11;0.60;;;0.52;;
28483;SDS011;15704;48.834;8.736;2024-03-29T11:00:14;0.60;;;0.50;;
28483;SDS011;15704;48.834;8.736;2024-03-29T11:02:49;0.50;;;0.50;;
28483;SDS011;15704;48.834;8.736;2024-03-29T11:05:16;0.50;;;0.50;;
28483;SDS011;15704;48.834;8.736;2024-03-29T11:07:43;0.70;;;0.70;;
28483;SDS011;15704;48.834;8.736;2024-03-29T11:10:18;0.32;;;0.32;;
28483;SDS011;15704;48.834;8.736;2024-03-29T11:15:41;0.68;;;0.55;;
28483;SDS011;15704;48.834;8.736;2024-03-29T11:18:11;0.45;;;0.45;;
28483;SDS011;15704;48.834;8.736;2024-03-29T11:20:37;0.70;;;0.50;;
28483;SDS011;15704;48.834;8.736;2024-03-29T11:23:09;0.30;;;0.30;;
28483;SDS011;15704;48.834;8.736;2024-03-29T11:25:38;0.50;;;0.50;;
28483;SDS011;15704;48.834;8.736;2024-03-29T11:28:05;0.47;;;0.47;;
28483;SDS011;15704;48.834;8.736;2024-03-29T11:30:58;2.05;;;0.60;;
28483;SDS011;15704;48.834;8.736;2024-03-29T11:33:26;0.50;;;0.50;;
28483;SDS011;15704;48.834;8.736;2024-03-29T11:35:53;0.65;;;0.55;;
28483;SDS011;15704;48.834;8.736;2024-03-29T11:38:18;0.77;;;0.60;;
28483;SDS011;15704;48.834;8.736;2024-03-29T11:40:54;0.75;;;0.63;;
28483;SDS011;15704;48.834;8.736;2024-03-29T11:43:28;0.68;;;0.50;;
28483;SDS011;15704;48.834;8.736;2024-03-29T11:45:55;0.40;;;0.40;;
28483;SDS011;15704;48.834;8.736;2024-03-29T11:48:26;0.40;;;0.40;;
28483;SDS011;15704;48.834;8.736;2024-03-29T11:50:53;0.98;;;0.60;;
28483;SDS011;15704;48.834;8.736;2024-03-29T11:53:19;2.05;;;0.60;;
28483;SDS011;15704;48.834;8.736;2024-03-29T11:55:46;0.55;;;0.40;;
28483;SDS011;15704;48.834;8.736;2024-03-29T11:58:14;0.45;;;0.45;;
28483;SDS011;15704;48.834;8.736;2024-03-29T12:00:40;0.50;;;0.50;;
28483;SDS011;15704;48.834;8.736;2024-03-29T12:03:09;0.50;;;0.40;;
28483;SDS011;15704;48.834;8.736;2024-03-29T12:05:35;0.43;;;0.43;;
28483;SDS011;15704;48.834;8.736;2024-03-29T12:08:01;0.60;;;0.60;;
28483;SDS011;15704;48.834;8.736;2024-03-29T12:10:28;0.50;;;0.50;;
28483;SDS011;15704;48.834;8.736;2024-03-29T12:12:59;0.70;;;0.60;;
28483;SDS011;15704;48.834;8.736;2024-03-29T12:15:28;0.65;;;0.47;;
28483;SDS011;15704;48.834;8.736;2024-03-29T12:17:55;0.32;;;0.32;;
28483;SDS011;15704;48.834;8.736;2024-03-29T12:20:22;0.57;;;0.57;;
28483;SDS011;15704;48.834;8.736;2024-03-29T12:22:48;0.50;;;0.50;;
28483;SDS011;15704;48.834;8.736;2024-03-29T12:25:14;0.77;;;0.55;;
28483;SDS011;15704;48.834;8.736;2024-03-29T12:27:42;0.50;;;0.50;;
28483;SDS011;15704;48.834;8.736;2024-03-29T12:30:08;0.50;;;0.50;;
28483;SDS011;15704;48.834;8.736;2024-03-29T12:32:35;0.35;;;0.35;;
28483;SDS011;15704;48.834;8.736;2024-03-29T12:35:10;0.50;;;0.40;;
28483;SDS011;15704;48.834;8.736;2024-03-29T12:37:37;0.38;;;0.38;;
28483;SDS011;15704;48.834;8.736;2024-03-29T12:40:12;0.50;;;0.50;;
28483;SDS011;15704;48.834;8.736;2024-03-29T12:42:38;0.45;;;0.45;;
28483;SDS011;15704;48.834;8.736;2024-03-29T12:45:05;0.45;;;0.40;;
28483;SDS011;15704;48.834;8.736;2024-03-29T12:47:35;1.02;;;0.60;;
28483;SDS011;15704;48.834;8.736;2024-03-29T12:50:05;0.82;;;0.60;;
28483;SDS011;15704;48.834;8.736;2024-03-29T12:52:37;0.40;;;0.40;;
28483;SDS011;15704;48.834;8.736;2024-03-29T12:55:07;0.50;;;0.40;;
28483;SDS011;15704;48.834;8.736;2024-03-29T12:57:34;0.57;;;0.50;;
28483;SDS011;15704;48.834;8.736;2024-03-29T13:00:00;0.50;;;0.50;;
28483;SDS011;15704;48.834;8.736;2024-03-29T13:02:26;1.00;;;0.50;;
28483;SDS011;15704;48.834;8.736;2024-03-29T13:04:52;0.40;;;0.40;;
28483;SDS011;15704;48.834;8.736;2024-03-29T13:07:18;0.50;;;0.50;;
28483;SDS011;15704;48.834;8.736;2024-03-29T13:09:44;0.50;;;0.40;;
28483;SDS011;15704;48.834;8.736;2024-03-29T13:12:09;0.60;;;0.40;;
28483;SDS011;15704;48.834;8.736;2024-03-29T13:14:37;0.52;;;0.50;;
28483;SDS011;15704;48.834;8.736;2024-03-29T13:17:03;0.40;;;0.40;;
28483;SDS011;15704;48.834;8.736;2024-03-29T13:19:29;0.50;;;0.50;;
28483;SDS011;15704;48.834;8.736;2024-03-29T13:21:54;0.80;;;0.50;;
28483;SDS011;15704;48.834;8.736;2024-03-29T13:24:20;0.70;;;0.50;;
28483;SDS011;15704;48.834;8.736;2024-03-29T13:26:46;0.50;;;0.45;;
28483;SDS011;15704;48.834;8.736;2024-03-29T13:29:12;0.77;;;0.68;;
28483;SDS011;15704;48.834;8.736;2024-03-29T13:31:41;0.45;;;0.45;;
28483;SDS011;15704;48.834;8.736;2024-03-29T13:34:07;0.80;;;0.50;;
28483;SDS011;15704;48.834;8.736;2024-03-29T13:36:41;0.60;;;0.60;;
28483;SDS011;15704;48.834;8.736;2024-03-29T13:39:07;0.85;;;0.65;;
28483;SDS011;15704;48.834;8.736;2024-03-29T13:41:34;1.02;;;0.60;;
28483;SDS011;15704;48.834;8.736;2024-03-29T13:44:00;0.52;;;0.52;;
28483;SDS011;15704;48.834;8.736;2024-03-29T13:46:36;1.45;;;0.63;;
28483;SDS011;15704;48.834;8.736;2024-03-29T13:49:02;2.25;;;0.70;;
28483;SDS011;15704;48.834;8.736;2024-03-29T13:51:31;1.35;;;0.80;;
28483;SDS011;15704;48.834;8.736;2024-03-29T13:53:56;1.10;;;0.80;;
28483;SDS011;15704;48.834;8.736;2024-03-29T13:56:24;1.55;;;0.90;;
28483;SDS011;15704;48.834;8.736;2024-03-29T13:58:55;1.27;;;0.85;;
28483;SDS011;15704;48.834;8.736;2024-03-29T14:01:21;1.60;;;1.02;;
28483;SDS011;15704;48.834;8.736;2024-03-29T14:03:47;1.23;;;0.85;;
28483;SDS011;15704;48.834;8.736;2024-03-29T14:06:13;1.23;;;0.85;;
28483;SDS011;15704;48.834;8.736;2024-03-29T14:08:39;1.20;;;0.88;;
28483;SDS011;15704;48.834;8.736;2024-03-29T14:11:05;1.73;;;1.23;;
28483;SDS011;15704;48.834;8.736;2024-03-29T14:13:31;1.50;;;0.80;;
28483;SDS011;15704;48.834;8.736;2024-03-29T14:15:57;1.58;;;1.00;;
28483;SDS011;15704;48.834;8.736;2024-03-29T14:18:24;2.33;;;1.10;;
28483;SDS011;15704;48.834;8.736;2024-03-29T14:20:50;1.42;;;1.05;;
28483;SDS011;15704;48.834;8.736;2024-03-29T14:23:16;2.05;;;0.80;;
28483;SDS011;15704;48.834;8.736;2024-03-29T14:25:44;0.90;;;0.80;;
28483;SDS011;15704;48.834;8.736;2024-03-29T14:28:10;1.25;;;0.82;;
28483;SDS011;15704;48.834;8.736;2024-03-29T14:30:36;1.95;;;1.00;;
28483;SDS011;15704;48.834;8.736;2024-03-29T14:33:04;1.90;;;1.13;;
28483;SDS011;15704;48.834;8.736;2024-03-29T14:35:34;1.00;;;0.80;;
28483;SDS011;15704;48.834;8.736;2024-03-29T14:38:00;0.80;;;0.80;;
28483;SDS011;15704;48.834;8.736;2024-03-29T14:40:26;1.25;;;0.80;;
28483;SDS011;15704;48.834;8.736;2024-03-29T14:42:52;0.95;;;0.80;;
28483;SDS011;15704;48.834;8.736;2024-03-29T14:45:23;1.83;;;0.90;;
28483;SDS011;15704;48.834;8.736;2024-03-29T14:47:49;1.27;;;1.00;;
28483;SDS011;15704;48.834;8.736;2024-03-29T14:50:15;4.72;;;1.15;;
28483;SDS011;15704;48.834;8.736;2024-03-29T14:52:41;1.20;;;0.95;;
28483;SDS011;15704;48.834;8.736;2024-03-29T14:55:07;3.10;;;0.85;;